Terminal Aerodrome Forecast
Issued by NWS

Home | Current Version | Previous Version | Text Only | Print | Product List | Glossary On
Versions: 1 2 3 4 5 6 7 8 9 10 11 12 13 14 15 16 17
000
FTUS46 KSTO 222300
TAFSMF
TAF
KSMF 222336Z 2300/2324 17010G20KT P6SM SCT050 BKN120
     FM230400 18010KT P6SM BKN050 BKN100
     FM232100 20007KT P6SM SCT050 SCT100=

USA.gov is the U.S. government's official web portal to all federal, state and local government web resources and services.